RYR4JT EIDW-EGKK
Flight info
| Callsign | RYR4JT |
|---|---|
| Flight time | N/A |
| Altitude | 33000 |
| Route | ENDEQ3J ENDEQ Q36 EPOXI L15 KEPAD L151 DISIT |
| Aircraft | B38M/M-SDE1FGHILORVWXY/HB1 |
Departure
| Time | 2026-05-06 19:23 |
|---|---|
| Airport | Dublin Airport (EIDW) |
Arrival
| Time | N/A |
|---|---|
| Airport | London Gatwick Airport (EGKK) |
| Time | Latitude | Longitude | Altitude | Speed | Heading |
|---|---|---|---|---|---|
| 2026-05-06 18:57 | 53.43008 | -6.24943 | 217 ft | 0 kts | 5° |
| 2026-05-06 19:13 | 53.42999 | -6.24945 | 213 ft | 3 kts | 5° |
| 2026-05-06 19:14 | 53.42979 | -6.24948 | 213 ft | 3 kts | 5° |
| 2026-05-06 19:14 | 53.42961 | -6.24949 | 213 ft | 3 kts | 340° |
| 2026-05-06 19:14 | 53.42950 | -6.24933 | 213 ft | 3 kts | 286° |
| 2026-05-06 19:14 | 53.42948 | -6.24922 | 216 ft | 1 kts | 275° |
| 2026-05-06 19:15 | 53.42950 | -6.24949 | 213 ft | 3 kts | 275° |
| 2026-05-06 19:15 | 53.42951 | -6.24983 | 215 ft | 3 kts | 275° |
| 2026-05-06 19:15 | 53.42953 | -6.25017 | 217 ft | 3 kts | 275° |
| 2026-05-06 19:15 | 53.42955 | -6.25050 | 216 ft | 3 kts | 275° |
| 2026-05-06 19:16 | 53.42956 | -6.25073 | 216 ft | 3 kts | 275° |
| 2026-05-06 19:16 | 53.42958 | -6.25102 | 213 ft | 2 kts | 275° |
| 2026-05-06 19:16 | 53.42958 | -6.25107 | 213 ft | 0 kts | 275° |
| 2026-05-06 19:18 | 53.42958 | -6.25111 | 213 ft | 2 kts | 275° |
| 2026-05-06 19:18 | 53.42962 | -6.25179 | 213 ft | 10 kts | 275° |
| 2026-05-06 19:19 | 53.42994 | -6.25279 | 213 ft | 11 kts | 330° |
| 2026-05-06 19:19 | 53.43073 | -6.25338 | 218 ft | 14 kts | 336° |
| 2026-05-06 19:19 | 53.43163 | -6.25410 | 216 ft | 12 kts | 313° |
| 2026-05-06 19:19 | 53.43212 | -6.25543 | 213 ft | 15 kts | 320° |
| 2026-05-06 19:20 | 53.43309 | -6.25618 | 220 ft | 17 kts | 337° |
| 2026-05-06 19:20 | 53.43403 | -6.25619 | 218 ft | 14 kts | 57° |
| 2026-05-06 19:20 | 53.43401 | -6.25452 | 221 ft | 16 kts | 94° |
| 2026-05-06 19:20 | 53.43389 | -6.25242 | 218 ft | 20 kts | 95° |
| 2026-05-06 19:21 | 53.43381 | -6.25043 | 213 ft | 2 kts | 74° |
| 2026-05-06 19:21 | 53.43393 | -6.25008 | 216 ft | 5 kts | 53° |
| 2026-05-06 19:21 | 53.43439 | -6.24990 | 214 ft | 11 kts | 345° |
| 2026-05-06 19:21 | 53.43480 | -6.25086 | 218 ft | 16 kts | 300° |
| 2026-05-06 19:22 | 53.43547 | -6.25257 | 215 ft | 12 kts | 316° |
| 2026-05-06 19:22 | 53.43566 | -6.25336 | 212 ft | 12 kts | 276° |
| 2026-05-06 19:22 | 53.43597 | -6.25907 | 216 ft | 88 kts | 275° |
| 2026-05-06 19:22 | 53.43674 | -6.27327 | 222 ft | 153 kts | 274° |
| 2026-05-06 19:23 | 53.43785 | -6.29283 | 567 ft | 177 kts | 275° |
| 2026-05-06 19:23 | 53.44064 | -6.31334 | 1241 ft | 187 kts | 299° |
| 2026-05-06 19:23 | 53.45004 | -6.32869 | 2088 ft | 193 kts | 326° |
| 2026-05-06 19:23 | 53.46201 | -6.34211 | 2432 ft | 220 kts | 323° |
| 2026-05-06 19:24 | 53.47614 | -6.35256 | 3217 ft | 224 kts | 349° |
| 2026-05-06 19:24 | 53.49155 | -6.35265 | 4264 ft | 221 kts | 2° |
| 2026-05-06 19:24 | 53.50714 | -6.34858 | 4960 ft | 238 kts | 22° |
| 2026-05-06 19:24 | 53.52030 | -6.33045 | 5477 ft | 258 kts | 56° |
| 2026-05-06 19:25 | 53.52657 | -6.30145 | 6024 ft | 275 kts | 87° |
| 2026-05-06 19:25 | 53.52593 | -6.26890 | 6762 ft | 281 kts | 94° |
| 2026-05-06 19:25 | 53.52520 | -6.23592 | 7619 ft | 285 kts | 93° |
| 2026-05-06 19:25 | 53.52455 | -6.20229 | 8472 ft | 289 kts | 92° |
| 2026-05-06 19:26 | 53.52395 | -6.16835 | 9364 ft | 292 kts | 92° |
| 2026-05-06 19:26 | 53.52335 | -6.13392 | 10169 ft | 298 kts | 92° |
| 2026-05-06 19:26 | 53.52274 | -6.09870 | 10618 ft | 315 kts | 92° |
| 2026-05-06 19:26 | 53.52077 | -6.06089 | 10955 ft | 333 kts | 103° |
| 2026-05-06 19:27 | 53.51511 | -6.02242 | 11488 ft | 346 kts | 105° |
| 2026-05-06 19:27 | 53.50928 | -5.98257 | 12122 ft | 354 kts | 104° |
| 2026-05-06 19:27 | 53.50341 | -5.94217 | 12936 ft | 359 kts | 105° |
| 2026-05-06 19:27 | 53.49746 | -5.90109 | 13707 ft | 364 kts | 105° |
| 2026-05-06 19:28 | 53.49146 | -5.85970 | 14430 ft | 369 kts | 105° |
| 2026-05-06 19:28 | 53.48602 | -5.81748 | 15186 ft | 373 kts | 102° |
| 2026-05-06 19:28 | 53.48068 | -5.77456 | 15955 ft | 377 kts | 103° |
| 2026-05-06 19:28 | 53.47522 | -5.73127 | 16721 ft | 382 kts | 103° |
| 2026-05-06 19:29 | 53.46966 | -5.68739 | 17464 ft | 386 kts | 103° |
| 2026-05-06 19:29 | 53.46400 | -5.64305 | 18197 ft | 390 kts | 103° |
| 2026-05-06 19:29 | 53.45829 | -5.59838 | 18820 ft | 394 kts | 102° |
| 2026-05-06 19:29 | 53.45250 | -5.55322 | 19489 ft | 397 kts | 102° |
| 2026-05-06 19:30 | 53.44674 | -5.50782 | 20118 ft | 400 kts | 100° |
| 2026-05-06 19:30 | 53.44456 | -5.46083 | 20549 ft | 408 kts | 91° |
| 2026-05-06 19:30 | 53.44354 | -5.41309 | 21171 ft | 411 kts | 92° |
| 2026-05-06 19:30 | 53.44239 | -5.36513 | 21790 ft | 414 kts | 92° |
| 2026-05-06 19:31 | 53.44119 | -5.31672 | 22402 ft | 416 kts | 91° |
| 2026-05-06 19:31 | 53.43997 | -5.26868 | 23000 ft | 419 kts | 91° |
| 2026-05-06 19:31 | 53.43737 | -5.17017 | 24078 ft | 425 kts | 92° |
| 2026-05-06 19:32 | 53.43584 | -5.12055 | 24558 ft | 428 kts | 92° |
| 2026-05-06 19:32 | 53.43429 | -5.07044 | 25014 ft | 431 kts | 92° |
| 2026-05-06 19:32 | 53.43271 | -5.02016 | 25486 ft | 433 kts | 91° |
| 2026-05-06 19:32 | 53.43111 | -4.96952 | 25945 ft | 436 kts | 91° |
| 2026-05-06 19:33 | 53.42948 | -4.91866 | 26401 ft | 439 kts | 91° |
| 2026-05-06 19:33 | 53.42781 | -4.86737 | 26854 ft | 441 kts | 91° |
| 2026-05-06 19:33 | 53.42612 | -4.81586 | 27287 ft | 444 kts | 91° |
| 2026-05-06 19:33 | 53.42441 | -4.76460 | 27709 ft | 446 kts | 91° |
| 2026-05-06 19:34 | 53.42265 | -4.71254 | 28134 ft | 449 kts | 91° |
| 2026-05-06 19:34 | 53.42086 | -4.66021 | 28539 ft | 451 kts | 91° |
| 2026-05-06 19:34 | 53.41904 | -4.60745 | 28946 ft | 454 kts | 91° |
| 2026-05-06 19:34 | 53.41718 | -4.55449 | 29333 ft | 457 kts | 91° |
| 2026-05-06 19:35 | 53.41529 | -4.50118 | 29724 ft | 459 kts | 91° |
| 2026-05-06 19:35 | 53.41336 | -4.44764 | 30099 ft | 462 kts | 91° |
| 2026-05-06 19:35 | 53.41140 | -4.39380 | 30422 ft | 464 kts | 91° |
| 2026-05-06 19:35 | 53.40941 | -4.33972 | 30776 ft | 465 kts | 91° |
| 2026-05-06 19:36 | 53.40738 | -4.28547 | 31138 ft | 466 kts | 91° |
| 2026-05-06 19:36 | 53.40534 | -4.23142 | 31606 ft | 464 kts | 90° |
| 2026-05-06 19:36 | 53.40328 | -4.17744 | 32111 ft | 462 kts | 90° |
| 2026-05-06 19:36 | 53.40121 | -4.12389 | 32613 ft | 460 kts | 90° |
| 2026-05-06 19:37 | 53.39911 | -4.07041 | 32987 ft | 460 kts | 90° |
| 2026-05-06 19:37 | 53.39700 | -4.01699 | 33021 ft | 458 kts | 90° |
| 2026-05-06 19:37 | 53.39271 | -3.91075 | 33004 ft | 456 kts | 90° |
| 2026-05-06 19:38 | 53.38836 | -3.80484 | 32992 ft | 452 kts | 90° |
| 2026-05-06 19:38 | 53.38767 | -3.75284 | 32593 ft | 446 kts | 86° |
| 2026-05-06 19:38 | 53.38766 | -3.70129 | 32205 ft | 445 kts | 87° |
| 2026-05-06 19:39 | 53.38432 | -3.65080 | 32644 ft | 428 kts | 101° |
| 2026-05-06 19:39 | 53.37560 | -3.60414 | 33069 ft | 418 kts | 108° |
| 2026-05-06 19:39 | 53.35032 | -3.51734 | 33072 ft | 408 kts | 110° |
| 2026-05-06 19:40 | 53.32474 | -3.43361 | 32987 ft | 403 kts | 125° |
| 2026-05-06 19:40 | 53.28699 | -3.36549 | 33002 ft | 395 kts | 129° |
| 2026-05-06 19:41 | 53.25064 | -3.29817 | 33014 ft | 385 kts | 128° |
| 2026-05-06 19:41 | 53.21577 | -3.23261 | 33014 ft | 375 kts | 128° |
| 2026-05-06 19:42 | 53.18155 | -3.16813 | 33006 ft | 363 kts | 128° |
| 2026-05-06 19:42 | 53.14875 | -3.10650 | 33022 ft | 351 kts | 128° |
| 2026-05-06 19:43 | 53.11828 | -3.04443 | 32915 ft | 341 kts | 122° |
| 2026-05-06 19:43 | 53.09043 | -2.98263 | 32980 ft | 326 kts | 125° |
| 2026-05-06 19:44 | 53.06252 | -2.92574 | 32998 ft | 308 kts | 123° |
| 2026-05-06 19:44 | 53.05037 | -2.89757 | 32990 ft | 289 kts | 123° |
| 2026-05-06 19:44 | 53.03800 | -2.87206 | 32717 ft | 286 kts | 131° |
| 2026-05-06 19:45 | 53.02319 | -2.84891 | 31978 ft | 298 kts | 140° |